sensor_id;sensor_type;location;lat;lon;timestamp;temperature;humidity
7341;DHT22;6870;50.944;6.932;2023-01-20T00:01:42;16.50;34.60
7341;DHT22;6870;50.944;6.932;2023-01-20T00:04:12;16.90;35.00
7341;DHT22;6870;50.944;6.932;2023-01-20T00:06:44;16.50;34.40
7341;DHT22;6870;50.944;6.932;2023-01-20T00:09:14;16.30;34.50
7341;DHT22;6870;50.944;6.932;2023-01-20T00:11:44;16.70;34.60
7341;DHT22;6870;50.944;6.932;2023-01-20T00:14:14;16.60;34.70
7341;DHT22;6870;50.944;6.932;2023-01-20T00:16:42;16.80;34.90
7341;DHT22;6870;50.944;6.932;2023-01-20T00:19:11;16.40;34.50
7341;DHT22;6870;50.944;6.932;2023-01-20T00:21:40;16.60;34.70
7341;DHT22;6870;50.944;6.932;2023-01-20T00:24:08;16.60;34.70
7341;DHT22;6870;50.944;6.932;2023-01-20T00:26:36;16.50;34.60
7341;DHT22;6870;50.944;6.932;2023-01-20T00:29:05;16.40;34.50
7341;DHT22;6870;50.944;6.932;2023-01-20T00:31:34;16.80;34.90
7341;DHT22;6870;50.944;6.932;2023-01-20T00:34:03;16.40;34.60
7341;DHT22;6870;50.944;6.932;2023-01-20T00:36:31;16.50;34.60
7341;DHT22;6870;50.944;6.932;2023-01-20T00:39:00;16.20;34.30
7341;DHT22;6870;50.944;6.932;2023-01-20T00:41:29;16.60;34.70
7341;DHT22;6870;50.944;6.932;2023-01-20T00:43:58;16.40;35.30
7341;DHT22;6870;50.944;6.932;2023-01-20T00:46:26;16.30;34.40
7341;DHT22;6870;50.944;6.932;2023-01-20T00:48:56;16.40;34.60
7341;DHT22;6870;50.944;6.932;2023-01-20T00:51:24;16.40;34.60
7341;DHT22;6870;50.944;6.932;2023-01-20T00:53:52;16.40;34.60
7341;DHT22;6870;50.944;6.932;2023-01-20T00:56:20;16.40;34.60
7341;DHT22;6870;50.944;6.932;2023-01-20T00:58:48;16.40;34.60
7341;DHT22;6870;50.944;6.932;2023-01-20T01:01:16;16.40;34.70
7341;DHT22;6870;50.944;6.932;2023-01-20T01:03:45;16.40;34.70
7341;DHT22;6870;50.944;6.932;2023-01-20T01:06:16;16.50;34.80
7341;DHT22;6870;50.944;6.932;2023-01-20T01:08:44;16.50;34.80
7341;DHT22;6870;50.944;6.932;2023-01-20T01:11:13;16.30;34.60
7341;DHT22;6870;50.944;6.932;2023-01-20T01:13:41;16.40;34.80
7341;DHT22;6870;50.944;6.932;2023-01-20T01:16:10;16.30;34.60
7341;DHT22;6870;50.944;6.932;2023-01-20T01:18:40;16.40;34.70
7341;DHT22;6870;50.944;6.932;2023-01-20T01:21:10;16.70;35.00
7341;DHT22;6870;50.944;6.932;2023-01-20T01:23:41;16.60;34.90
7341;DHT22;6870;50.944;6.932;2023-01-20T01:26:09;16.50;34.20
7341;DHT22;6870;50.944;6.932;2023-01-20T01:28:38;16.20;34.70
7341;DHT22;6870;50.944;6.932;2023-01-20T01:31:07;16.60;34.40
7341;DHT22;6870;50.944;6.932;2023-01-20T01:33:35;16.50;34.80
7341;DHT22;6870;50.944;6.932;2023-01-20T01:36:04;16.50;34.80
7341;DHT22;6870;50.944;6.932;2023-01-20T01:38:34;16.20;34.60
7341;DHT22;6870;50.944;6.932;2023-01-20T01:41:03;16.30;34.70
7341;DHT22;6870;50.944;6.932;2023-01-20T01:43:34;16.50;34.90
7341;DHT22;6870;50.944;6.932;2023-01-20T01:46:04;16.40;34.80
7341;DHT22;6870;50.944;6.932;2023-01-20T01:48:36;16.20;34.70
7341;DHT22;6870;50.944;6.932;2023-01-20T01:51:12;16.50;34.90
7341;DHT22;6870;50.944;6.932;2023-01-20T01:53:43;16.40;34.80
7341;DHT22;6870;50.944;6.932;2023-01-20T01:56:15;16.50;34.50
7341;DHT22;6870;50.944;6.932;2023-01-20T01:58:45;16.60;35.00
7341;DHT22;6870;50.944;6.932;2023-01-20T02:01:16;16.50;35.00
7341;DHT22;6870;50.944;6.932;2023-01-20T02:03:50;16.50;34.80
7341;DHT22;6870;50.944;6.932;2023-01-20T02:06:24;16.50;35.00
7341;DHT22;6870;50.944;6.932;2023-01-20T02:08:54;16.50;34.20
7341;DHT22;6870;50.944;6.932;2023-01-20T02:11:24;16.50;34.90
7341;DHT22;6870;50.944;6.932;2023-01-20T02:13:52;16.40;34.80
7341;DHT22;6870;50.944;6.932;2023-01-20T02:16:27;16.30;34.70
7341;DHT22;6870;50.944;6.932;2023-01-20T02:19:21;16.30;34.70
7341;DHT22;6870;50.944;6.932;2023-01-20T02:22:28;16.30;34.70
7341;DHT22;6870;50.944;6.932;2023-01-20T02:25:23;16.40;34.70
7341;DHT22;6870;50.944;6.932;2023-01-20T02:28:25;16.30;34.70
7341;DHT22;6870;50.944;6.932;2023-01-20T02:31:31;16.30;34.80
7341;DHT22;6870;50.944;6.932;2023-01-20T02:34:38;16.40;34.70
7341;DHT22;6870;50.944;6.932;2023-01-20T02:37:13;16.30;34.80
7341;DHT22;6870;50.944;6.932;2023-01-20T02:39:49;16.30;34.80
7341;DHT22;6870;50.944;6.932;2023-01-20T02:42:25;16.30;34.90
7341;DHT22;6870;50.944;6.932;2023-01-20T02:45:03;16.30;34.70
7341;DHT22;6870;50.944;6.932;2023-01-20T02:47:40;16.50;35.20
7341;DHT22;6870;50.944;6.932;2023-01-20T02:50:22;16.40;34.90
7341;DHT22;6870;50.944;6.932;2023-01-20T02:52:56;16.20;34.70
7341;DHT22;6870;50.944;6.932;2023-01-20T02:55:43;16.40;34.80
7341;DHT22;6870;50.944;6.932;2023-01-20T02:58:16;16.30;34.10
7341;DHT22;6870;50.944;6.932;2023-01-20T03:00:50;16.50;35.10
7341;DHT22;6870;50.944;6.932;2023-01-20T03:03:24;16.50;35.10
7341;DHT22;6870;50.944;6.932;2023-01-20T03:05:57;16.60;35.20
7341;DHT22;6870;50.944;6.932;2023-01-20T03:08:29;16.40;34.90
7341;DHT22;6870;50.944;6.932;2023-01-20T03:11:02;16.10;34.60
7341;DHT22;6870;50.944;6.932;2023-01-20T03:13:34;16.30;34.80
7341;DHT22;6870;50.944;6.932;2023-01-20T03:16:07;16.50;35.10
7341;DHT22;6870;50.944;6.932;2023-01-20T03:18:38;16.20;34.80
7341;DHT22;6870;50.944;6.932;2023-01-20T03:21:09;16.40;35.00
7341;DHT22;6870;50.944;6.932;2023-01-20T03:23:41;16.40;35.20
7341;DHT22;6870;50.944;6.932;2023-01-20T03:26:13;16.20;34.90
7341;DHT22;6870;50.944;6.932;2023-01-20T03:28:44;16.30;35.00
7341;DHT22;6870;50.944;6.932;2023-01-20T03:31:15;16.40;35.10
7341;DHT22;6870;50.944;6.932;2023-01-20T03:33:46;16.20;34.80
7341;DHT22;6870;50.944;6.932;2023-01-20T03:36:17;16.40;35.10
7341;DHT22;6870;50.944;6.932;2023-01-20T03:38:48;16.40;35.10
7341;DHT22;6870;50.944;6.932;2023-01-20T03:41:24;16.50;34.70
7341;DHT22;6870;50.944;6.932;2023-01-20T03:43:57;16.10;34.80
7341;DHT22;6870;50.944;6.932;2023-01-20T03:46:41;16.20;34.90
7341;DHT22;6870;50.944;6.932;2023-01-20T03:52:42;16.40;35.00
7341;DHT22;6870;50.944;6.932;2023-01-20T03:55:18;16.40;35.00
7341;DHT22;6870;50.944;6.932;2023-01-20T03:57:53;16.40;35.10
7341;DHT22;6870;50.944;6.932;2023-01-20T04:00:25;16.40;35.00
7341;DHT22;6870;50.944;6.932;2023-01-20T04:02:57;16.60;35.20
7341;DHT22;6870;50.944;6.932;2023-01-20T04:05:26;16.30;34.90
7341;DHT22;6870;50.944;6.932;2023-01-20T04:08:00;16.20;34.70
7341;DHT22;6870;50.944;6.932;2023-01-20T04:10:32;16.20;34.70
7341;DHT22;6870;50.944;6.932;2023-01-20T04:13:02;16.20;34.80
7341;DHT22;6870;50.944;6.932;2023-01-20T04:15:33;16.40;35.00
7341;DHT22;6870;50.944;6.932;2023-01-20T04:18:13;16.50;35.10
7341;DHT22;6870;50.944;6.932;2023-01-20T04:20:42;16.50;35.00
7341;DHT22;6870;50.944;6.932;2023-01-20T04:23:17;16.50;35.00
7341;DHT22;6870;50.944;6.932;2023-01-20T04:25:47;16.40;34.80
7341;DHT22;6870;50.944;6.932;2023-01-20T04:28:16;16.20;34.70
7341;DHT22;6870;50.944;6.932;2023-01-20T04:30:44;16.40;35.10
7341;DHT22;6870;50.944;6.932;2023-01-20T04:33:12;16.60;35.20
7341;DHT22;6870;50.944;6.932;2023-01-20T04:35:41;16.30;34.90
7341;DHT22;6870;50.944;6.932;2023-01-20T04:38:09;16.20;34.80
7341;DHT22;6870;50.944;6.932;2023-01-20T04:40:38;16.20;34.80
7341;DHT22;6870;50.944;6.932;2023-01-20T04:43:07;16.40;35.00
7341;DHT22;6870;50.944;6.932;2023-01-20T04:45:35;16.20;34.80
7341;DHT22;6870;50.944;6.932;2023-01-20T04:48:05;16.40;34.90
7341;DHT22;6870;50.944;6.932;2023-01-20T04:50:37;16.20;34.80
7341;DHT22;6870;50.944;6.932;2023-01-20T04:53:06;16.40;34.80
7341;DHT22;6870;50.944;6.932;2023-01-20T04:55:34;16.30;34.80
7341;DHT22;6870;50.944;6.932;2023-01-20T04:58:04;16.20;34.70
7341;DHT22;6870;50.944;6.932;2023-01-20T05:00:32;16.50;34.90
7341;DHT22;6870;50.944;6.932;2023-01-20T05:03:00;16.50;35.00
7341;DHT22;6870;50.944;6.932;2023-01-20T05:05:29;16.20;34.60
7341;DHT22;6870;50.944;6.932;2023-01-20T05:07:57;16.20;34.70
7341;DHT22;6870;50.944;6.932;2023-01-20T05:10:25;16.30;34.70
7341;DHT22;6870;50.944;6.932;2023-01-20T05:12:53;16.30;34.80
7341;DHT22;6870;50.944;6.932;2023-01-20T05:15:22;16.30;34.80
7341;DHT22;6870;50.944;6.932;2023-01-20T05:17:50;16.20;34.90
7341;DHT22;6870;50.944;6.932;2023-01-20T05:20:19;16.20;34.80
7341;DHT22;6870;50.944;6.932;2023-01-20T05:22:47;16.20;34.80
7341;DHT22;6870;50.944;6.932;2023-01-20T05:25:15;16.20;35.60
7341;DHT22;6870;50.944;6.932;2023-01-20T05:27:43;16.20;34.70
7341;DHT22;6870;50.944;6.932;2023-01-20T05:30:12;16.20;34.70
7341;DHT22;6870;50.944;6.932;2023-01-20T05:32:43;16.20;34.70
7341;DHT22;6870;50.944;6.932;2023-01-20T05:35:11;16.10;34.60
7341;DHT22;6870;50.944;6.932;2023-01-20T05:37:40;16.20;34.70
7341;DHT22;6870;50.944;6.932;2023-01-20T05:40:09;16.30;34.80
7341;DHT22;6870;50.944;6.932;2023-01-20T05:42:38;16.30;34.80
7341;DHT22;6870;50.944;6.932;2023-01-20T05:45:07;16.20;34.70
7341;DHT22;6870;50.944;6.932;2023-01-20T05:47:35;16.20;34.70
7341;DHT22;6870;50.944;6.932;2023-01-20T05:50:06;16.50;35.00
7341;DHT22;6870;50.944;6.932;2023-01-20T05:52:34;16.20;34.30
7341;DHT22;6870;50.944;6.932;2023-01-20T05:55:02;16.10;34.40
7341;DHT22;6870;50.944;6.932;2023-01-20T05:57:31;16.40;34.80
7341;DHT22;6870;50.944;6.932;2023-01-20T05:59:59;16.20;34.40
7341;DHT22;6870;50.944;6.932;2023-01-20T06:02:29;16.40;34.70
7341;DHT22;6870;50.944;6.932;2023-01-20T06:04:57;16.20;33.70
7341;DHT22;6870;50.944;6.932;2023-01-20T06:07:29;16.30;34.50
7341;DHT22;6870;50.944;6.932;2023-01-20T06:09:57;16.20;34.40
7341;DHT22;6870;50.944;6.932;2023-01-20T06:12:25;16.20;34.50
7341;DHT22;6870;50.944;6.932;2023-01-20T06:14:53;16.20;34.00
7341;DHT22;6870;50.944;6.932;2023-01-20T06:17:21;16.40;34.50
7341;DHT22;6870;50.944;6.932;2023-01-20T06:19:49;16.30;34.30
7341;DHT22;6870;50.944;6.932;2023-01-20T06:22:17;16.50;34.70
7341;DHT22;6870;50.944;6.932;2023-01-20T06:24:47;16.50;34.70
7341;DHT22;6870;50.944;6.932;2023-01-20T06:27:15;16.10;34.30
7341;DHT22;6870;50.944;6.932;2023-01-20T06:29:44;16.40;34.80
7341;DHT22;6870;50.944;6.932;2023-01-20T06:32:12;16.20;34.30
7341;DHT22;6870;50.944;6.932;2023-01-20T06:34:40;16.10;34.20
7341;DHT22;6870;50.944;6.932;2023-01-20T06:37:08;16.40;34.70
7341;DHT22;6870;50.944;6.932;2023-01-20T06:39:36;16.20;34.60
7341;DHT22;6870;50.944;6.932;2023-01-20T06:42:07;16.30;34.60
7341;DHT22;6870;50.944;6.932;2023-01-20T06:44:37;16.30;34.50
7341;DHT22;6870;50.944;6.932;2023-01-20T06:47:05;16.30;33.90
7341;DHT22;6870;50.944;6.932;2023-01-20T06:49:33;16.20;34.10
7341;DHT22;6870;50.944;6.932;2023-01-20T06:52:01;16.30;35.20
7341;DHT22;6870;50.944;6.932;2023-01-20T06:54:29;16.40;34.00
7341;DHT22;6870;50.944;6.932;2023-01-20T06:56:57;16.10;34.10
7341;DHT22;6870;50.944;6.932;2023-01-20T06:59:27;16.30;34.50
7341;DHT22;6870;50.944;6.932;2023-01-20T07:01:55;16.50;34.60
7341;DHT22;6870;50.944;6.932;2023-01-20T07:04:23;16.20;34.40
7341;DHT22;6870;50.944;6.932;2023-01-20T07:06:51;16.20;34.40
7341;DHT22;6870;50.944;6.932;2023-01-20T07:09:19;16.00;34.30
7341;DHT22;6870;50.944;6.932;2023-01-20T07:11:47;16.10;34.30
7341;DHT22;6870;50.944;6.932;2023-01-20T07:14:15;16.20;34.30
7341;DHT22;6870;50.944;6.932;2023-01-20T07:16:45;16.30;34.60
7341;DHT22;6870;50.944;6.932;2023-01-20T07:19:13;16.40;34.10
7341;DHT22;6870;50.944;6.932;2023-01-20T07:21:41;16.00;34.30
7341;DHT22;6870;50.944;6.932;2023-01-20T07:24:09;16.10;34.30
7341;DHT22;6870;50.944;6.932;2023-01-20T07:26:37;16.50;34.80
7341;DHT22;6870;50.944;6.932;2023-01-20T07:29:05;16.20;34.10
7341;DHT22;6870;50.944;6.932;2023-01-20T07:31:33;16.30;34.50
7341;DHT22;6870;50.944;6.932;2023-01-20T07:34:03;16.50;34.60
7341;DHT22;6870;50.944;6.932;2023-01-20T07:36:31;16.40;34.60
7341;DHT22;6870;50.944;6.932;2023-01-20T07:38:59;16.40;34.60
7341;DHT22;6870;50.944;6.932;2023-01-20T07:41:27;16.20;34.50
7341;DHT22;6870;50.944;6.932;2023-01-20T07:43:55;16.20;34.50
7341;DHT22;6870;50.944;6.932;2023-01-20T07:46:23;16.30;34.50
7341;DHT22;6870;50.944;6.932;2023-01-20T07:48:51;16.30;34.40
7341;DHT22;6870;50.944;6.932;2023-01-20T07:51:20;16.30;34.60
7341;DHT22;6870;50.944;6.932;2023-01-20T07:53:49;16.50;34.70
7341;DHT22;6870;50.944;6.932;2023-01-20T07:56:19;16.40;34.50
7341;DHT22;6870;50.944;6.932;2023-01-20T07:58:48;16.30;33.70
7341;DHT22;6870;50.944;6.932;2023-01-20T08:01:19;16.20;34.10
7341;DHT22;6870;50.944;6.932;2023-01-20T08:03:49;16.20;34.40
7341;DHT22;6870;50.944;6.932;2023-01-20T08:06:20;16.30;34.60
7341;DHT22;6870;50.944;6.932;2023-01-20T08:08:50;16.10;34.30
7341;DHT22;6870;50.944;6.932;2023-01-20T08:11:20;16.30;34.40
7341;DHT22;6870;50.944;6.932;2023-01-20T08:13:48;16.20;34.50
7341;DHT22;6870;50.944;6.932;2023-01-20T08:16:17;16.30;34.60
7341;DHT22;6870;50.944;6.932;2023-01-20T08:18:46;16.30;34.60
7341;DHT22;6870;50.944;6.932;2023-01-20T08:21:21;16.30;34.50
7341;DHT22;6870;50.944;6.932;2023-01-20T08:23:50;16.20;34.00
7341;DHT22;6870;50.944;6.932;2023-01-20T08:26:20;16.20;34.30
7341;DHT22;6870;50.944;6.932;2023-01-20T08:28:50;16.40;34.60
7341;DHT22;6870;50.944;6.932;2023-01-20T08:31:20;16.40;34.40
7341;DHT22;6870;50.944;6.932;2023-01-20T08:33:52;16.30;34.90
7341;DHT22;6870;50.944;6.932;2023-01-20T08:36:24;16.00;34.10
7341;DHT22;6870;50.944;6.932;2023-01-20T08:38:53;16.10;34.10
7341;DHT22;6870;50.944;6.932;2023-01-20T08:41:24;16.40;35.20
7341;DHT22;6870;50.944;6.932;2023-01-20T08:43:54;16.30;34.30
7341;DHT22;6870;50.944;6.932;2023-01-20T08:46:22;16.20;34.20
7341;DHT22;6870;50.944;6.932;2023-01-20T08:48:51;16.50;34.40
7341;DHT22;6870;50.944;6.932;2023-01-20T08:51:23;16.40;34.30
7341;DHT22;6870;50.944;6.932;2023-01-20T08:53:54;16.40;33.90
7341;DHT22;6870;50.944;6.932;2023-01-20T08:56:22;16.20;33.70
7341;DHT22;6870;50.944;6.932;2023-01-20T08:58:50;16.40;34.20
7341;DHT22;6870;50.944;6.932;2023-01-20T09:01:21;16.30;34.00
7341;DHT22;6870;50.944;6.932;2023-01-20T09:03:51;16.30;33.40
7341;DHT22;6870;50.944;6.932;2023-01-20T09:06:38;16.30;33.00
7341;DHT22;6870;50.944;6.932;2023-01-20T09:09:07;16.40;33.00
7341;DHT22;6870;50.944;6.932;2023-01-20T09:11:35;16.50;33.80
7341;DHT22;6870;50.944;6.932;2023-01-20T09:14:03;16.40;33.70
7341;DHT22;6870;50.944;6.932;2023-01-20T09:16:31;16.90;34.00
7341;DHT22;6870;50.944;6.932;2023-01-20T09:18:59;16.90;33.70
7341;DHT22;6870;50.944;6.932;2023-01-20T09:21:28;16.40;33.30
7341;DHT22;6870;50.944;6.932;2023-01-20T09:23:58;16.50;33.20
7341;DHT22;6870;50.944;6.932;2023-01-20T09:26:26;16.70;33.30
7341;DHT22;6870;50.944;6.932;2023-01-20T09:29:05;16.80;33.50
7341;DHT22;6870;50.944;6.932;2023-01-20T09:31:38;17.00;33.50
7341;DHT22;6870;50.944;6.932;2023-01-20T09:34:10;16.90;33.50
7341;DHT22;6870;50.944;6.932;2023-01-20T09:36:41;17.20;33.20
7341;DHT22;6870;50.944;6.932;2023-01-20T09:39:12;17.10;32.80
7341;DHT22;6870;50.944;6.932;2023-01-20T09:41:55;16.80;32.40
7341;DHT22;6870;50.944;6.932;2023-01-20T09:44:47;17.10;32.00
7341;DHT22;6870;50.944;6.932;2023-01-20T09:47:26;17.10;32.70
7341;DHT22;6870;50.944;6.932;2023-01-20T09:53:27;16.80;32.60
7341;DHT22;6870;50.944;6.932;2023-01-20T09:56:06;17.20;32.90
7341;DHT22;6870;50.944;6.932;2023-01-20T09:58:39;16.90;32.70
7341;DHT22;6870;50.944;6.932;2023-01-20T10:01:14;17.00;32.90
7341;DHT22;6870;50.944;6.932;2023-01-20T10:03:49;17.00;33.00
7341;DHT22;6870;50.944;6.932;2023-01-20T10:06:25;17.00;33.10
7341;DHT22;6870;50.944;6.932;2023-01-20T10:08:58;17.00;33.50
7341;DHT22;6870;50.944;6.932;2023-01-20T10:11:37;16.80;32.90
7341;DHT22;6870;50.944;6.932;2023-01-20T10:14:12;16.80;32.20
7341;DHT22;6870;50.944;6.932;2023-01-20T10:16:47;16.90;33.10
7341;DHT22;6870;50.944;6.932;2023-01-20T10:19:22;16.70;32.90
7341;DHT22;6870;50.944;6.932;2023-01-20T10:22:01;16.70;32.90
7341;DHT22;6870;50.944;6.932;2023-01-20T10:24:38;16.50;32.70
7341;DHT22;6870;50.944;6.932;2023-01-20T10:27:10;17.00;33.20
7341;DHT22;6870;50.944;6.932;2023-01-20T10:29:42;16.70;32.90
7341;DHT22;6870;50.944;6.932;2023-01-20T10:32:20;16.80;32.80
7341;DHT22;6870;50.944;6.932;2023-01-20T10:34:53;17.00;32.80
7341;DHT22;6870;50.944;6.932;2023-01-20T10:37:22;16.80;33.00
7341;DHT22;6870;50.944;6.932;2023-01-20T10:39:55;16.70;32.80
7341;DHT22;6870;50.944;6.932;2023-01-20T10:42:27;16.70;32.40
7341;DHT22;6870;50.944;6.932;2023-01-20T10:44:55;16.60;32.80
7341;DHT22;6870;50.944;6.932;2023-01-20T10:47:35;17.00;33.30
7341;DHT22;6870;50.944;6.932;2023-01-20T10:53:40;16.80;33.20
7341;DHT22;6870;50.944;6.932;2023-01-20T10:56:24;16.70;33.20
7341;DHT22;6870;50.944;6.932;2023-01-20T10:59:07;16.70;33.90
7341;DHT22;6870;50.944;6.932;2023-01-20T11:01:40;16.90;33.40
7341;DHT22;6870;50.944;6.932;2023-01-20T11:04:17;16.30;32.90
7341;DHT22;6870;50.944;6.932;2023-01-20T11:06:49;16.90;32.90
7341;DHT22;6870;50.944;6.932;2023-01-20T11:09:28;16.60;32.50
7341;DHT22;6870;50.944;6.932;2023-01-20T11:12:01;16.80;32.70
7341;DHT22;6870;50.944;6.932;2023-01-20T11:14:33;16.50;33.20
7341;DHT22;6870;50.944;6.932;2023-01-20T11:17:04;16.90;33.60
7341;DHT22;6870;50.944;6.932;2023-01-20T11:19:45;16.40;33.00
7341;DHT22;6870;50.944;6.932;2023-01-20T11:22:15;16.40;33.20
7341;DHT22;6870;50.944;6.932;2023-01-20T11:24:52;16.30;33.20
7341;DHT22;6870;50.944;6.932;2023-01-20T11:27:24;16.70;33.60
7341;DHT22;6870;50.944;6.932;2023-01-20T11:29:58;16.30;33.10
7341;DHT22;6870;50.944;6.932;2023-01-20T11:32:31;16.70;33.60
7341;DHT22;6870;50.944;6.932;2023-01-20T11:35:01;16.20;33.20
7341;DHT22;6870;50.944;6.932;2023-01-20T11:37:46;16.30;33.20
7341;DHT22;6870;50.944;6.932;2023-01-20T11:40:18;16.50;33.40
7341;DHT22;6870;50.944;6.932;2023-01-20T11:42:49;16.40;33.20
7341;DHT22;6870;50.944;6.932;2023-01-20T11:45:30;16.40;33.30
7341;DHT22;6870;50.944;6.932;2023-01-20T11:48:03;16.50;33.30
7341;DHT22;6870;50.944;6.932;2023-01-20T11:50:39;16.90;33.40
7341;DHT22;6870;50.944;6.932;2023-01-20T11:53:16;16.30;32.50
7341;DHT22;6870;50.944;6.932;2023-01-20T11:55:49;16.80;33.70
7341;DHT22;6870;50.944;6.932;2023-01-20T11:58:22;16.30;32.80
7341;DHT22;6870;50.944;6.932;2023-01-20T12:00:59;16.30;33.20
7341;DHT22;6870;50.944;6.932;2023-01-20T12:04:06;16.50;33.30
7341;DHT22;6870;50.944;6.932;2023-01-20T12:06:49;16.80;33.50
7341;DHT22;6870;50.944;6.932;2023-01-20T12:09:26;16.30;33.20
7341;DHT22;6870;50.944;6.932;2023-01-20T12:11:57;16.50;33.50
7341;DHT22;6870;50.944;6.932;2023-01-20T12:14:28;16.80;33.80
7341;DHT22;6870;50.944;6.932;2023-01-20T12:20:04;16.40;33.40
7341;DHT22;6870;50.944;6.932;2023-01-20T12:22:43;16.20;33.40
7341;DHT22;6870;50.944;6.932;2023-01-20T12:25:18;16.30;33.40
7341;DHT22;6870;50.944;6.932;2023-01-20T12:27:51;16.40;33.50
7341;DHT22;6870;50.944;6.932;2023-01-20T12:30:39;16.90;33.80
7341;DHT22;6870;50.944;6.932;2023-01-20T12:33:21;16.30;33.20
7341;DHT22;6870;50.944;6.932;2023-01-20T12:36:30;16.20;33.10
7341;DHT22;6870;50.944;6.932;2023-01-20T12:39:38;16.30;33.40
7341;DHT22;6870;50.944;6.932;2023-01-20T12:42:39;16.20;33.20
7341;DHT22;6870;50.944;6.932;2023-01-20T12:45:28;16.20;33.30
7341;DHT22;6870;50.944;6.932;2023-01-20T12:48:13;16.50;33.70
7341;DHT22;6870;50.944;6.932;2023-01-20T12:51:07;16.20;33.30
7341;DHT22;6870;50.944;6.932;2023-01-20T12:54:00;16.20;32.50
7341;DHT22;6870;50.944;6.932;2023-01-20T12:56:48;16.50;33.30
7341;DHT22;6870;50.944;6.932;2023-01-20T12:59:28;16.30;33.40
7341;DHT22;6870;50.944;6.932;2023-01-20T13:02:18;16.30;33.40
7341;DHT22;6870;50.944;6.932;2023-01-20T13:08:13;16.30;32.70
7341;DHT22;6870;50.944;6.932;2023-01-20T13:10:56;16.30;33.40
7341;DHT22;6870;50.944;6.932;2023-01-20T13:13:37;16.40;33.30
7341;DHT22;6870;50.944;6.932;2023-01-20T13:16:31;16.40;33.30
7341;DHT22;6870;50.944;6.932;2023-01-20T13:19:09;16.50;33.40
7341;DHT22;6870;50.944;6.932;2023-01-20T13:21:40;16.50;34.40
7341;DHT22;6870;50.944;6.932;2023-01-20T13:24:14;16.30;33.40
7341;DHT22;6870;50.944;6.932;2023-01-20T13:26:46;16.20;33.30
7341;DHT22;6870;50.944;6.932;2023-01-20T13:32:29;16.20;33.40
7341;DHT22;6870;50.944;6.932;2023-01-20T13:35:00;16.20;33.40
7341;DHT22;6870;50.944;6.932;2023-01-20T13:37:37;16.20;33.40
7341;DHT22;6870;50.944;6.932;2023-01-20T13:43:36;16.30;33.60
7341;DHT22;6870;50.944;6.932;2023-01-20T13:46:42;16.30;33.60
7341;DHT22;6870;50.944;6.932;2023-01-20T13:49:46;16.30;33.60
7341;DHT22;6870;50.944;6.932;2023-01-20T13:56:00;16.40;33.60
7341;DHT22;6870;50.944;6.932;2023-01-20T13:58:50;16.30;33.00
7341;DHT22;6870;50.944;6.932;2023-01-20T14:01:19;16.20;33.60
7341;DHT22;6870;50.944;6.932;2023-01-20T14:04:01;16.50;33.90
7341;DHT22;6870;50.944;6.932;2023-01-20T14:06:30;16.30;33.70
7341;DHT22;6870;50.944;6.932;2023-01-20T14:09:10;16.30;33.80
7341;DHT22;6870;50.944;6.932;2023-01-20T14:11:48;16.10;33.60
7341;DHT22;6870;50.944;6.932;2023-01-20T14:14:18;16.30;33.50
7341;DHT22;6870;50.944;6.932;2023-01-20T14:17:00;16.20;33.40
7341;DHT22;6870;50.944;6.932;2023-01-20T14:19:32;16.20;33.70
7341;DHT22;6870;50.944;6.932;2023-01-20T14:22:14;16.30;33.80
7341;DHT22;6870;50.944;6.932;2023-01-20T14:24:46;16.20;33.60
7341;DHT22;6870;50.944;6.932;2023-01-20T14:27:18;16.40;34.00
7341;DHT22;6870;50.944;6.932;2023-01-20T14:29:48;16.50;34.00
7341;DHT22;6870;50.944;6.932;2023-01-20T14:32:19;16.10;33.60
7341;DHT22;6870;50.944;6.932;2023-01-20T14:34:52;16.20;33.60
7341;DHT22;6870;50.944;6.932;2023-01-20T14:37:25;16.40;33.80
7341;DHT22;6870;50.944;6.932;2023-01-20T14:39:56;16.20;33.10
7341;DHT22;6870;50.944;6.932;2023-01-20T14:43:03;16.10;33.10
7341;DHT22;6870;50.944;6.932;2023-01-20T14:45:44;16.20;33.70
7341;DHT22;6870;50.944;6.932;2023-01-20T14:48:20;16.40;33.90
7341;DHT22;6870;50.944;6.932;2023-01-20T14:51:01;16.30;33.90
7341;DHT22;6870;50.944;6.932;2023-01-20T14:53:31;16.30;34.00
7341;DHT22;6870;50.944;6.932;2023-01-20T14:56:02;16.10;33.30
7341;DHT22;6870;50.944;6.932;2023-01-20T14:58:33;16.20;33.90
7341;DHT22;6870;50.944;6.932;2023-01-20T15:01:04;16.20;33.90
7341;DHT22;6870;50.944;6.932;2023-01-20T15:03:33;16.30;34.00
7341;DHT22;6870;50.944;6.932;2023-01-20T15:06:14;16.30;33.90
7341;DHT22;6870;50.944;6.932;2023-01-20T15:08:46;16.10;33.90
7341;DHT22;6870;50.944;6.932;2023-01-20T15:11:33;16.30;34.10
7341;DHT22;6870;50.944;6.932;2023-01-20T15:14:10;16.30;34.10
7341;DHT22;6870;50.944;6.932;2023-01-20T15:16:47;16.20;33.20
7341;DHT22;6870;50.944;6.932;2023-01-20T15:19:27;16.20;33.50
7341;DHT22;6870;50.944;6.932;2023-01-20T15:22:14;16.10;34.10
7341;DHT22;6870;50.944;6.932;2023-01-20T15:24:45;16.20;34.10
7341;DHT22;6870;50.944;6.932;2023-01-20T15:27:27;16.20;34.20
7341;DHT22;6870;50.944;6.932;2023-01-20T15:32:48;16.10;34.00
7341;DHT22;6870;50.944;6.932;2023-01-20T15:35:19;15.80;33.80
7341;DHT22;6870;50.944;6.932;2023-01-20T15:37:51;16.20;34.20
7341;DHT22;6870;50.944;6.932;2023-01-20T15:40:22;16.20;34.20
7341;DHT22;6870;50.944;6.932;2023-01-20T15:42:54;16.30;34.30
7341;DHT22;6870;50.944;6.932;2023-01-20T15:45:23;16.20;34.20
7341;DHT22;6870;50.944;6.932;2023-01-20T15:47:52;16.40;34.40
7341;DHT22;6870;50.944;6.932;2023-01-20T15:50:23;16.10;34.10
7341;DHT22;6870;50.944;6.932;2023-01-20T15:52:52;16.20;34.20
7341;DHT22;6870;50.944;6.932;2023-01-20T15:55:20;16.20;34.20
7341;DHT22;6870;50.944;6.932;2023-01-20T15:57:50;16.20;34.10
7341;DHT22;6870;50.944;6.932;2023-01-20T16:00:22;16.20;34.20
7341;DHT22;6870;50.944;6.932;2023-01-20T16:02:50;16.10;34.10
7341;DHT22;6870;50.944;6.932;2023-01-20T16:05:19;16.20;34.20
7341;DHT22;6870;50.944;6.932;2023-01-20T16:07:47;16.20;34.20
7341;DHT22;6870;50.944;6.932;2023-01-20T16:10:17;16.40;34.40
7341;DHT22;6870;50.944;6.932;2023-01-20T16:12:46;16.20;34.20
7341;DHT22;6870;50.944;6.932;2023-01-20T16:15:16;16.10;34.20
7341;DHT22;6870;50.944;6.932;2023-01-20T16:17:46;16.40;34.00
7341;DHT22;6870;50.944;6.932;2023-01-20T16:20:21;16.20;34.20
7341;DHT22;6870;50.944;6.932;2023-01-20T16:22:50;16.10;34.20
7341;DHT22;6870;50.944;6.932;2023-01-20T16:25:19;16.20;34.30
7341;DHT22;6870;50.944;6.932;2023-01-20T16:27:48;16.20;34.30
7341;DHT22;6870;50.944;6.932;2023-01-20T16:30:18;16.20;34.20
7341;DHT22;6870;50.944;6.932;2023-01-20T16:32:50;16.10;34.10
7341;DHT22;6870;50.944;6.932;2023-01-20T16:35:19;16.20;34.20
7341;DHT22;6870;50.944;6.932;2023-01-20T16:37:49;16.20;34.30
7341;DHT22;6870;50.944;6.932;2023-01-20T16:40:19;16.20;34.20
7341;DHT22;6870;50.944;6.932;2023-01-20T16:42:48;16.10;34.10
7341;DHT22;6870;50.944;6.932;2023-01-20T16:45:24;16.00;33.70
7341;DHT22;6870;50.944;6.932;2023-01-20T16:47:55;16.00;34.10
7341;DHT22;6870;50.944;6.932;2023-01-20T16:50:24;16.30;34.40
7341;DHT22;6870;50.944;6.932;2023-01-20T16:52:54;16.20;34.20
7341;DHT22;6870;50.944;6.932;2023-01-20T16:55:22;16.20;34.30
7341;DHT22;6870;50.944;6.932;2023-01-20T16:57:51;16.40;34.40
7341;DHT22;6870;50.944;6.932;2023-01-20T17:00:20;16.20;34.30
7341;DHT22;6870;50.944;6.932;2023-01-20T17:02:49;16.20;34.00
7341;DHT22;6870;50.944;6.932;2023-01-20T17:05:20;16.20;34.30
7341;DHT22;6870;50.944;6.932;2023-01-20T17:07:52;16.10;33.70
7341;DHT22;6870;50.944;6.932;2023-01-20T17:10:23;16.00;33.90